createdAt,value
2018-06-05T00:02:30.587Z,18.83
2018-06-05T00:05:04.052Z,18.83
2018-06-05T00:07:37.420Z,18.82
2018-06-05T00:10:10.810Z,18.85
2018-06-05T00:12:44.189Z,18.86
2018-06-05T00:15:17.588Z,18.84
2018-06-05T00:17:51.165Z,18.77
2018-06-05T00:20:24.564Z,18.77
2018-06-05T00:22:57.929Z,18.79
2018-06-05T00:25:31.302Z,18.76
2018-06-05T00:28:04.747Z,18.75
2018-06-05T00:30:38.120Z,18.73
2018-06-05T00:33:11.481Z,18.60
2018-06-05T00:35:44.985Z,18.73
2018-06-05T00:38:18.987Z,18.74
2018-06-05T00:40:52.375Z,18.74
2018-06-05T00:43:25.745Z,18.74
2018-06-05T00:45:59.132Z,18.71
2018-06-05T00:48:32.505Z,18.75
2018-06-05T00:51:17.069Z,18.79
2018-06-05T00:53:51.036Z,18.75
2018-06-05T00:56:24.425Z,18.79
2018-06-05T00:58:57.867Z,18.80
2018-06-05T01:01:31.247Z,18.80
2018-06-05T01:04:04.648Z,18.81
2018-06-05T01:06:38.031Z,18.79
2018-06-05T01:09:11.699Z,18.79
2018-06-05T01:11:45.114Z,18.79
2018-06-05T01:14:19.071Z,18.81
2018-06-05T01:16:52.461Z,18.82
2018-06-05T01:19:25.824Z,18.81
2018-06-05T01:21:59.195Z,18.83
2018-06-05T01:24:32.595Z,18.84
2018-06-05T01:27:06.041Z,18.83
2018-06-05T01:29:39.591Z,18.82
2018-06-05T01:32:12.972Z,18.86
2018-06-05T01:34:46.328Z,18.84
2018-06-05T01:37:20.651Z,18.87
2018-06-05T01:39:54.091Z,18.86
2018-06-05T01:42:27.481Z,18.85
2018-06-05T01:45:00.875Z,18.81
2018-06-05T01:47:34.228Z,18.75
2018-06-05T01:50:07.598Z,18.76
2018-06-05T01:52:40.986Z,18.76
2018-06-05T01:55:14.374Z,18.78
2018-06-05T01:57:49.414Z,18.74
2018-06-05T02:00:22.794Z,18.78
2018-06-05T02:02:56.192Z,18.77
2018-06-05T02:05:29.571Z,18.78
2018-06-05T02:08:02.939Z,18.77
2018-06-05T02:10:36.316Z,18.76
2018-06-05T02:13:09.721Z,18.75
2018-06-05T02:15:43.155Z,18.74
2018-06-05T02:18:16.520Z,18.74
2018-06-05T02:20:50.615Z,18.74
2018-06-05T02:23:24.063Z,18.66
2018-06-05T02:25:57.467Z,18.69
2018-06-05T02:28:30.857Z,18.64
2018-06-05T02:31:04.245Z,18.64
2018-06-05T02:33:37.611Z,18.70
2018-06-05T02:36:10.991Z,18.63
2018-06-05T02:38:44.359Z,18.59
2018-06-05T02:41:18.006Z,18.56
2018-06-05T02:43:51.378Z,18.50
2018-06-05T02:46:24.780Z,18.47
2018-06-05T02:48:58.145Z,18.46
2018-06-05T02:51:31.538Z,18.41
2018-06-05T02:54:04.909Z,18.47
2018-06-05T02:56:38.309Z,18.46
2018-06-05T02:59:11.675Z,18.46
2018-06-05T03:01:45.120Z,18.42
2018-06-05T03:04:19.259Z,18.44
2018-06-05T03:06:52.695Z,18.43
2018-06-05T03:09:26.061Z,18.47
2018-06-05T03:11:59.483Z,18.43
2018-06-05T03:14:32.856Z,18.45
2018-06-05T03:17:06.236Z,18.40
2018-06-05T03:19:39.619Z,18.47
2018-06-05T03:22:13.017Z,18.47
2018-06-05T03:24:46.393Z,18.46
2018-06-05T03:27:20.284Z,18.46
2018-06-05T03:29:53.658Z,18.47
2018-06-05T03:32:27.043Z,18.47
2018-06-05T03:35:00.424Z,18.48
2018-06-05T03:37:33.803Z,18.49
2018-06-05T03:40:07.188Z,18.52
2018-06-05T03:42:40.582Z,18.52
2018-06-05T03:45:13.954Z,18.47
2018-06-05T03:47:47.392Z,18.38
2018-06-05T03:50:21.528Z,18.34
2018-06-05T03:52:54.921Z,18.36
2018-06-05T03:55:28.322Z,18.36
2018-06-05T03:58:01.701Z,18.33
2018-06-05T04:00:35.078Z,18.30
2018-06-05T04:03:08.471Z,18.25
2018-06-05T04:05:41.840Z,18.21
2018-06-05T04:08:15.239Z,18.20
2018-06-05T04:10:49.235Z,18.19
2018-06-05T04:13:22.649Z,18.21
2018-06-05T04:15:56.002Z,18.24
2018-06-05T04:18:29.381Z,18.27
2018-06-05T04:21:02.739Z,18.27
2018-06-05T04:23:36.121Z,18.31
2018-06-05T04:26:09.489Z,18.33
2018-06-05T04:28:42.873Z,18.35
2018-06-05T04:31:16.243Z,18.32
2018-06-05T04:33:49.925Z,18.30
2018-06-05T04:36:23.289Z,18.33
2018-06-05T04:38:56.679Z,18.38
2018-06-05T04:41:30.061Z,18.32
2018-06-05T04:44:03.456Z,18.32
2018-06-05T04:46:36.831Z,18.29
2018-06-05T04:49:10.220Z,18.27
2018-06-05T04:51:43.717Z,18.15
2018-06-05T04:54:17.126Z,18.09
2018-06-05T04:56:51.485Z,18.02
2018-06-05T04:59:24.887Z,18.09
2018-06-05T05:01:58.274Z,18.15
2018-06-05T05:04:31.630Z,18.19
2018-06-05T05:07:05.059Z,18.24
2018-06-05T05:09:38.422Z,18.26
2018-06-05T05:12:11.831Z,18.29
2018-06-05T05:14:45.222Z,18.29
2018-06-05T05:17:19.032Z,18.27
2018-06-05T05:19:52.694Z,18.24
2018-06-05T05:22:26.079Z,18.22
2018-06-05T05:24:59.459Z,18.27
2018-06-05T05:27:32.875Z,18.29
2018-06-05T05:30:06.281Z,18.33
2018-06-05T05:32:39.671Z,18.39
2018-06-05T05:35:13.055Z,18.46
2018-06-05T05:37:46.488Z,18.50
2018-06-05T05:40:20.499Z,18.48
2018-06-05T05:42:53.897Z,18.50
2018-06-05T05:45:27.273Z,18.51
2018-06-05T05:48:00.661Z,18.36
2018-06-05T05:50:34.020Z,18.41
2018-06-05T05:53:07.414Z,18.42
2018-06-05T05:55:40.789Z,18.50
2018-06-05T05:58:14.218Z,18.51
2018-06-05T06:00:47.622Z,18.52
2018-06-05T06:03:21.623Z,18.62
2018-06-05T06:05:55.018Z,18.66
2018-06-05T06:08:28.411Z,18.71
2018-06-05T06:11:01.780Z,18.81
2018-06-05T06:13:35.349Z,18.93
2018-06-05T06:16:08.745Z,19.02
2018-06-05T06:18:42.128Z,19.09
2018-06-05T06:21:15.500Z,19.11
2018-06-05T06:23:49.099Z,19.16
2018-06-05T06:26:22.538Z,19.23
2018-06-05T06:28:55.952Z,19.33
2018-06-05T06:31:29.336Z,19.39
2018-06-05T06:34:02.729Z,19.42
2018-06-05T06:36:36.103Z,19.49
2018-06-05T06:39:10.510Z,19.58
2018-06-05T06:41:43.894Z,19.67
2018-06-05T06:44:17.408Z,19.77
2018-06-05T06:46:51.252Z,19.82
2018-06-05T06:49:24.650Z,19.93
2018-06-05T06:51:58.037Z,20.05
2018-06-05T06:54:31.436Z,20.12
2018-06-05T06:57:04.817Z,20.20
2018-06-05T06:59:38.204Z,20.35
2018-06-05T07:02:11.569Z,20.33
2018-06-05T07:04:44.977Z,20.18
2018-06-05T07:07:19.053Z,20.06
2018-06-05T07:09:52.446Z,19.98
2018-06-05T07:12:25.829Z,19.96
2018-06-05T07:14:59.215Z,20.13
2018-06-05T07:17:32.616Z,20.47
2018-06-05T07:20:06.020Z,20.76
2018-06-05T07:22:39.384Z,20.79
2018-06-05T07:25:12.759Z,20.66
2018-06-05T07:27:46.195Z,20.63
2018-06-05T07:30:19.908Z,20.56
2018-06-05T07:32:53.275Z,20.53
2018-06-05T07:35:26.691Z,20.48
2018-06-05T07:38:00.076Z,20.45
2018-06-05T07:40:33.494Z,20.52
2018-06-05T07:43:06.893Z,20.68
2018-06-05T07:45:40.297Z,20.70
2018-06-05T07:48:13.678Z,20.95
2018-06-05T07:50:47.128Z,21.21
2018-06-05T07:53:21.225Z,21.51
2018-06-05T07:55:54.626Z,21.91
2018-06-05T07:58:27.985Z,21.97
2018-06-05T08:01:01.410Z,22.05
2018-06-05T08:03:34.777Z,22.18
2018-06-05T08:06:08.176Z,22.30
2018-06-05T08:08:42.044Z,22.41
2018-06-05T08:11:15.435Z,22.49
2018-06-05T08:13:50.554Z,22.50
2018-06-05T08:16:23.916Z,22.55
2018-06-05T08:18:57.320Z,22.69
2018-06-05T08:21:30.704Z,22.71
2018-06-05T08:24:04.082Z,22.81
2018-06-05T08:26:48.998Z,22.80
2018-06-05T08:29:22.492Z,22.80
2018-06-05T08:31:55.866Z,22.94
2018-06-05T08:34:29.275Z,22.79
2018-06-05T08:37:02.645Z,22.93
2018-06-05T08:39:36.060Z,23.17
2018-06-05T08:42:09.428Z,23.51
2018-06-05T08:44:42.856Z,23.48
2018-06-05T08:47:16.260Z,23.60
2018-06-05T08:49:50.502Z,23.66
2018-06-05T08:52:23.869Z,23.78
2018-06-05T08:54:57.277Z,23.91
2018-06-05T08:57:30.625Z,23.95
2018-06-05T09:00:04.103Z,24.02
2018-06-05T09:02:37.480Z,24.02
2018-06-05T09:05:10.900Z,24.07
2018-06-05T09:07:44.275Z,24.09
2018-06-05T09:10:17.672Z,24.01
2018-06-05T09:12:51.654Z,24.00
2018-06-05T09:15:25.039Z,24.07
2018-06-05T09:17:58.408Z,24.22
2018-06-05T09:20:31.815Z,24.17
2018-06-05T09:23:05.174Z,24.12
2018-06-05T09:25:38.570Z,24.24
2018-06-05T09:28:11.942Z,24.34
2018-06-05T09:30:45.371Z,24.38
2018-06-05T09:33:20.452Z,24.54
2018-06-05T09:35:53.834Z,24.56
2018-06-05T09:38:27.207Z,24.70
2018-06-05T09:41:00.596Z,24.73
2018-06-05T09:43:36.760Z,24.79
2018-06-05T09:46:10.142Z,24.89
2018-06-05T09:48:43.519Z,24.92
2018-06-05T09:51:16.942Z,24.99
2018-06-05T09:53:50.625Z,25.19
2018-06-05T09:56:24.016Z,25.38
2018-06-05T09:58:57.398Z,25.46
2018-06-05T10:01:30.790Z,25.45
2018-06-05T10:04:04.192Z,25.34
2018-06-05T10:06:37.592Z,25.28
2018-06-05T10:09:10.969Z,25.43
2018-06-05T10:11:44.415Z,25.63
2018-06-05T10:14:18.089Z,25.65
2018-06-05T10:16:51.514Z,25.68
2018-06-05T10:19:24.933Z,25.82
2018-06-05T10:21:58.388Z,25.78
2018-06-05T10:24:31.753Z,25.76
2018-06-05T10:27:05.206Z,25.81
2018-06-05T10:29:38.626Z,25.85
2018-06-05T10:32:12.020Z,25.95
2018-06-05T10:34:45.441Z,26.01
2018-06-05T10:37:19.477Z,26.11
2018-06-05T10:39:52.847Z,26.12
2018-06-05T10:42:26.242Z,26.24
2018-06-05T10:44:59.648Z,26.30
2018-06-05T10:47:33.044Z,26.36
2018-06-05T10:50:06.422Z,26.37
2018-06-05T10:52:39.815Z,26.37
2018-06-05T10:55:13.180Z,26.32
2018-06-05T10:57:46.604Z,26.29
2018-06-05T11:00:20.680Z,26.28
2018-06-05T11:02:54.053Z,26.23
2018-06-05T11:05:27.647Z,26.18
2018-06-05T11:08:01.019Z,26.29
2018-06-05T11:10:34.424Z,26.38
2018-06-05T11:13:07.827Z,26.18
2018-06-05T11:15:41.199Z,26.43
2018-06-05T11:18:14.573Z,27.24
2018-06-05T11:20:47.990Z,27.64
2018-06-05T11:23:21.387Z,27.78
2018-06-05T11:25:54.808Z,27.47
2018-06-05T11:28:28.168Z,27.38
2018-06-05T11:31:01.599Z,27.31
2018-06-05T11:33:35.004Z,27.27
2018-06-05T11:36:08.406Z,27.23
2018-06-05T11:38:41.799Z,27.09
2018-06-05T11:41:21.540Z,27.02
2018-06-05T11:43:54.898Z,27.04
2018-06-05T11:46:28.268Z,27.11
2018-06-05T11:49:01.644Z,27.10
2018-06-05T11:51:35.042Z,27.15
2018-06-05T11:54:08.454Z,27.10
2018-06-05T11:56:41.828Z,26.99
2018-06-05T11:59:15.232Z,26.86
2018-06-05T12:01:49.414Z,26.83
2018-06-05T12:04:22.997Z,26.77
2018-06-05T12:06:56.457Z,26.87
2018-06-05T12:09:29.831Z,27.07
2018-06-05T12:12:03.283Z,27.15
2018-06-05T12:14:36.657Z,27.02
2018-06-05T12:17:10.067Z,26.84
2018-06-05T12:19:43.461Z,26.75
2018-06-05T12:22:16.837Z,26.87
2018-06-05T12:24:51.060Z,27.00
2018-06-05T12:27:24.439Z,27.00
2018-06-05T12:29:57.801Z,27.08
2018-06-05T12:32:31.189Z,27.17
2018-06-05T12:35:04.540Z,27.10
2018-06-05T12:37:37.935Z,27.16
2018-06-05T12:40:11.404Z,27.16
2018-06-05T12:42:44.816Z,27.20
2018-06-05T12:45:18.447Z,27.22
2018-06-05T12:47:51.855Z,27.02
2018-06-05T12:50:25.280Z,27.09
2018-06-05T12:52:58.683Z,27.11
2018-06-05T12:55:32.130Z,27.09
2018-06-05T12:58:05.737Z,26.99
2018-06-05T13:00:39.140Z,26.92
2018-06-05T13:03:12.524Z,26.97
2018-06-05T13:05:45.904Z,27.02
2018-06-05T13:08:20.077Z,27.01
2018-06-05T13:10:53.485Z,26.91
2018-06-05T13:13:26.900Z,26.96
2018-06-05T13:16:00.290Z,27.00
2018-06-05T13:18:33.675Z,26.91
2018-06-05T13:21:07.172Z,27.19
2018-06-05T13:23:40.584Z,27.10
2018-06-05T13:26:13.944Z,27.04
2018-06-05T13:28:47.398Z,27.00
2018-06-05T13:31:21.451Z,27.00
2018-06-05T13:33:54.836Z,27.01
2018-06-05T13:36:28.207Z,27.08
2018-06-05T13:39:01.598Z,27.38
2018-06-05T13:41:41.624Z,27.56
2018-06-05T13:44:15.053Z,27.49
2018-06-05T13:46:48.961Z,27.48
2018-06-05T13:49:22.340Z,27.34
2018-06-05T13:51:55.731Z,27.35
2018-06-05T13:54:29.114Z,27.41
2018-06-05T13:57:02.492Z,27.38
2018-06-05T13:59:35.883Z,27.30
2018-06-05T14:02:09.257Z,27.26
2018-06-05T14:04:42.705Z,27.33
2018-06-05T14:07:16.076Z,27.39
2018-06-05T14:09:49.821Z,27.36
2018-06-05T14:12:23.225Z,27.40
2018-06-05T14:14:56.672Z,27.25
2018-06-05T14:17:30.075Z,27.13
2018-06-05T14:20:03.500Z,27.14
2018-06-05T14:22:36.911Z,27.11
2018-06-05T14:25:10.274Z,27.04
2018-06-05T14:27:43.668Z,26.97
2018-06-05T14:30:17.063Z,27.01
2018-06-05T14:32:51.048Z,27.01
2018-06-05T14:35:24.437Z,26.99
2018-06-05T14:37:57.824Z,27.01
2018-06-05T14:40:31.179Z,27.01
2018-06-05T14:43:04.558Z,27.01
2018-06-05T14:45:37.948Z,26.92
2018-06-05T14:48:11.347Z,26.84
2018-06-05T14:50:44.717Z,26.83
2018-06-05T14:53:18.131Z,26.77
2018-06-05T14:55:51.551Z,26.74
2018-06-05T14:58:24.932Z,26.92
2018-06-05T15:00:58.334Z,26.99
2018-06-05T15:03:31.718Z,26.98
2018-06-05T15:06:05.105Z,27.02
2018-06-05T15:08:38.500Z,26.98
2018-06-05T15:11:11.870Z,26.96
2018-06-05T15:13:45.282Z,27.03
2018-06-05T15:16:20.311Z,27.17
2018-06-05T15:18:53.729Z,27.13
2018-06-05T15:21:27.090Z,27.09
2018-06-05T15:24:00.466Z,27.09
2018-06-05T15:26:33.938Z,27.08
2018-06-05T15:29:07.301Z,26.95
2018-06-05T15:31:40.690Z,27.07
2018-06-05T15:34:14.137Z,26.94
2018-06-05T15:36:47.468Z,26.86
2018-06-05T15:39:21.980Z,26.77
2018-06-05T15:41:55.352Z,26.58
2018-06-05T15:44:28.738Z,26.88
2018-06-05T15:47:02.103Z,26.89
2018-06-05T15:49:35.507Z,26.84
2018-06-05T15:52:08.899Z,26.87
2018-06-05T15:54:42.299Z,26.85
2018-06-05T15:57:15.677Z,26.87
2018-06-05T15:59:49.099Z,26.89
2018-06-05T16:02:22.457Z,26.95
2018-06-05T16:04:55.863Z,26.96
2018-06-05T16:07:29.521Z,26.90
2018-06-05T16:10:02.999Z,26.92
2018-06-05T16:12:36.379Z,26.96
2018-06-05T16:15:09.972Z,26.88
2018-06-05T16:17:43.355Z,26.78
2018-06-05T16:20:16.833Z,26.84
2018-06-05T16:22:50.479Z,26.82
2018-06-05T16:25:23.869Z,26.91
2018-06-05T16:27:57.227Z,27.20
2018-06-05T16:30:30.663Z,27.50
2018-06-05T16:39:00.099Z,27.80
2018-06-05T16:41:33.738Z,27.78
2018-06-05T16:44:07.130Z,27.85
2018-06-05T16:46:40.437Z,27.90
2018-06-05T16:49:14.308Z,27.98
2018-06-05T16:51:47.619Z,28.09
2018-06-05T16:54:20.986Z,28.04
2018-06-05T16:56:54.648Z,28.10
2018-06-05T16:59:27.962Z,28.15
2018-06-05T17:02:01.268Z,27.99
2018-06-05T17:04:34.617Z,27.88
2018-06-05T17:07:08.048Z,27.83
2018-06-05T17:09:41.413Z,28.16
2018-06-05T17:12:14.811Z,28.39
2018-06-05T17:14:48.117Z,28.43
2018-06-05T17:17:21.456Z,28.43
2018-06-05T17:19:54.815Z,28.27
2018-06-05T17:22:28.110Z,28.09
2018-06-05T17:25:01.525Z,27.96
2018-06-05T17:27:34.930Z,27.82
2018-06-05T17:30:08.300Z,27.72
2018-06-05T17:32:41.766Z,27.64
2018-06-05T17:35:15.129Z,27.55
2018-06-05T17:37:48.467Z,27.44
2018-06-05T17:40:22.660Z,27.36
2018-06-05T17:42:55.921Z,27.28
2018-06-05T17:45:29.497Z,27.22
2018-06-05T17:48:02.830Z,27.07
2018-06-05T17:50:36.177Z,26.92
2018-06-05T17:53:09.704Z,26.78
2018-06-05T17:55:43.077Z,26.63
2018-06-05T17:58:16.477Z,26.54
2018-06-05T18:00:49.880Z,26.52
2018-06-05T18:03:23.957Z,26.49
2018-06-05T18:05:57.328Z,26.44
2018-06-05T18:08:30.791Z,26.40
2018-06-05T18:11:04.969Z,26.37
2018-06-05T18:13:38.441Z,26.31
2018-06-05T18:16:11.892Z,26.24
2018-06-05T18:18:45.323Z,26.16
2018-06-05T18:21:18.662Z,26.12
2018-06-05T18:23:52.442Z,26.03
2018-06-05T18:26:25.763Z,25.92
2018-06-05T18:28:59.363Z,25.85
2018-06-05T18:31:32.749Z,25.86
2018-06-05T18:34:06.108Z,25.79
2018-06-05T18:36:39.502Z,25.76
2018-06-05T18:39:12.864Z,25.73
2018-06-05T18:41:46.248Z,25.70
2018-06-05T18:44:19.592Z,25.62
2018-06-05T18:46:53.020Z,25.50
2018-06-05T18:49:26.341Z,25.38
2018-06-05T18:51:59.691Z,25.28
2018-06-05T18:54:33.056Z,25.23
2018-06-05T18:57:06.401Z,25.20
2018-06-05T18:59:39.713Z,25.17
2018-06-05T19:02:13.040Z,25.10
2018-06-05T19:04:46.339Z,24.99
2018-06-05T19:07:20.145Z,24.91
2018-06-05T19:09:54.074Z,24.86
2018-06-05T19:12:27.564Z,24.81
2018-06-05T19:15:00.934Z,24.74
2018-06-05T19:17:34.349Z,24.59
2018-06-05T19:20:07.788Z,24.42
2018-06-05T19:22:41.149Z,24.29
2018-06-05T19:25:14.464Z,24.13
2018-06-05T19:27:47.857Z,24.00
2018-06-05T19:30:21.157Z,23.82
2018-06-05T19:32:54.560Z,23.61
2018-06-05T19:35:27.918Z,23.47
2018-06-05T19:38:01.945Z,23.40
2018-06-05T19:40:35.312Z,23.27
2018-06-05T19:43:08.670Z,23.14
2018-06-05T19:45:42.721Z,23.00
2018-06-05T19:48:16.089Z,22.90
2018-06-05T19:50:49.425Z,22.82
2018-06-05T19:53:23.041Z,22.72
2018-06-05T19:55:56.740Z,22.70
2018-06-05T19:58:30.349Z,22.64
2018-06-05T20:01:03.650Z,22.51
2018-06-05T20:03:37.174Z,22.38
2018-06-05T20:06:10.642Z,22.30
2018-06-05T20:08:44.005Z,22.26
2018-06-05T20:11:17.480Z,22.20
2018-06-05T20:13:50.987Z,22.10
2018-06-05T20:16:25.189Z,21.98
2018-06-05T20:18:58.659Z,21.88
2018-06-05T20:21:32.203Z,21.78
2018-06-05T20:24:05.652Z,21.69
2018-06-05T20:26:39.041Z,21.60
2018-06-05T20:29:12.412Z,21.50
2018-06-05T20:31:45.793Z,21.43
2018-06-05T20:34:19.182Z,21.29
2018-06-05T20:36:52.602Z,21.22
2018-06-05T20:39:25.903Z,21.17
2018-06-05T20:42:00.212Z,21.10
2018-06-05T20:44:33.561Z,21.04
2018-06-05T20:47:07.016Z,20.96
2018-06-05T20:49:40.356Z,20.90
2018-06-05T20:52:13.876Z,20.85
2018-06-05T20:54:47.292Z,20.76
2018-06-05T20:57:20.710Z,20.66
2018-06-05T20:59:54.633Z,20.59
2018-06-05T21:02:28.027Z,20.53
2018-06-05T21:05:01.506Z,20.46
2018-06-05T21:07:34.882Z,20.41
2018-06-05T21:10:08.225Z,20.35
2018-06-05T21:12:41.620Z,20.29
2018-06-05T21:15:15.091Z,20.17
2018-06-05T21:17:48.469Z,19.98
2018-06-05T21:20:22.824Z,19.91
2018-06-05T21:22:56.140Z,19.90
2018-06-05T21:25:29.988Z,19.86
2018-06-05T21:28:03.350Z,19.71
2018-06-05T21:30:36.686Z,19.69
2018-06-05T21:33:10.100Z,19.69
2018-06-05T21:35:43.732Z,19.68
2018-06-05T21:38:17.096Z,19.67
2018-06-05T21:40:50.470Z,19.62
2018-06-05T21:43:24.233Z,19.58
2018-06-05T21:45:57.599Z,19.47
2018-06-05T21:48:31.337Z,19.30
2018-06-05T21:51:04.748Z,19.26
2018-06-05T21:53:38.119Z,19.25
2018-06-05T21:56:11.445Z,19.25
2018-06-05T21:58:44.875Z,19.20
2018-06-05T22:01:18.213Z,19.16
2018-06-05T22:03:51.637Z,19.17
2018-06-05T22:06:24.944Z,19.09
2018-06-05T22:08:58.371Z,19.06
2018-06-05T22:11:31.797Z,19.06
2018-06-05T22:14:05.176Z,19.04
2018-06-05T22:16:38.514Z,19.07
2018-06-05T22:19:11.962Z,19.10
2018-06-05T22:21:45.329Z,19.08
2018-06-05T22:24:18.702Z,19.11
2018-06-05T22:26:52.589Z,19.17
2018-06-05T22:29:25.904Z,19.18
2018-06-05T22:31:59.559Z,19.24
2018-06-05T22:34:32.927Z,19.29
2018-06-05T22:37:06.465Z,19.28
2018-06-05T22:39:40.048Z,19.29
2018-06-05T22:42:13.729Z,19.30
2018-06-05T22:44:47.308Z,19.22
2018-06-05T22:47:20.845Z,19.25
2018-06-05T22:49:55.173Z,19.30
2018-06-05T22:52:29.515Z,19.26
2018-06-05T22:55:03.173Z,19.27
2018-06-05T22:57:36.702Z,19.27
2018-06-05T23:00:10.799Z,19.25
2018-06-05T23:02:44.334Z,19.18
2018-06-05T23:05:17.861Z,19.15
2018-06-05T23:07:52.492Z,19.12
2018-06-05T23:10:25.950Z,19.07
2018-06-05T23:12:59.489Z,19.05
2018-06-05T23:15:32.863Z,19.02
2018-06-05T23:18:06.255Z,18.98
2018-06-05T23:20:39.653Z,18.90
2018-06-05T23:23:13.213Z,18.79
2018-06-05T23:25:46.552Z,18.73
2018-06-05T23:28:19.950Z,18.68
2018-06-05T23:30:53.768Z,18.63
2018-06-05T23:33:27.283Z,18.67
2018-06-05T23:36:00.616Z,18.63
2018-06-05T23:38:33.971Z,18.59
2018-06-05T23:41:07.337Z,18.65
2018-06-05T23:43:40.720Z,18.62
2018-06-05T23:46:14.209Z,18.57
2018-06-05T23:48:47.565Z,18.57
2018-06-05T23:51:20.997Z,18.56
2018-06-05T23:53:55.000Z,18.57
2018-06-05T23:56:28.339Z,18.54
2018-06-05T23:59:01.790Z,18.51
